Powderly, Texas
Current Conditions -  °F | °C
As of 1:55 AM on Wednesday 22 Oct 2014 (Local Time) from KPRX Reporting Station
Clear Clear  
Wind Chill: 61°   Ceiling: Unl
Heat Index: 61°   Visibility: 10mi
Dew Point: 54°   Wind: 3mph
Humidity: 77%   Direction: 90°E
Pressure: 30.08"   Gusts: NA
Location:  33.81°N, 95.52°W
Report Text: KPRX 220655Z 09003KT 10SM CLR 16/12 A3008 RMK AO1
Loading
Personal Weather Stations






























Interactive Weather Map
Tropical Storm Tracking
New forecast layout! Learn more

10-Day Weather Forecast

Advertisements
Track Severe Weather on mobile